sensor_id;sensor_type;location;lat;lon;timestamp;temperature;humidity
76104;HTU21D;64831;44.870;37.336;2023-11-19T00:00:53;9.09;75.78
76104;HTU21D;64831;44.870;37.336;2023-11-19T00:03:19;9.06;76.01
76104;HTU21D;64831;44.870;37.336;2023-11-19T00:05:45;9.04;76.12
76104;HTU21D;64831;44.870;37.336;2023-11-19T00:08:11;9.07;75.97
76104;HTU21D;64831;44.870;37.336;2023-11-19T00:10:37;9.06;76.07
76104;HTU21D;64831;44.870;37.336;2023-11-19T00:13:03;9.02;76.26
76104;HTU21D;64831;44.870;37.336;2023-11-19T00:15:30;8.98;76.43
76104;HTU21D;64831;44.870;37.336;2023-11-19T00:17:55;8.93;76.74
76104;HTU21D;64831;44.870;37.336;2023-11-19T00:20:21;8.91;76.86
76104;HTU21D;64831;44.870;37.336;2023-11-19T00:22:48;8.91;76.90
76104;HTU21D;64831;44.870;37.336;2023-11-19T00:25:17;8.86;77.18
76104;HTU21D;64831;44.870;37.336;2023-11-19T00:27:43;8.81;77.64
76104;HTU21D;64831;44.870;37.336;2023-11-19T00:30:12;8.80;78.05
76104;HTU21D;64831;44.870;37.336;2023-11-19T00:32:40;8.77;78.34
76104;HTU21D;64831;44.870;37.336;2023-11-19T00:35:06;8.78;78.29
76104;HTU21D;64831;44.870;37.336;2023-11-19T00:37:33;8.76;78.24
76104;HTU21D;64831;44.870;37.336;2023-11-19T00:39:59;8.73;78.71
76104;HTU21D;64831;44.870;37.336;2023-11-19T00:42:25;8.70;78.86
76104;HTU21D;64831;44.870;37.336;2023-11-19T00:44:51;8.65;79.18
76104;HTU21D;64831;44.870;37.336;2023-11-19T00:47:17;8.64;79.31
76104;HTU21D;64831;44.870;37.336;2023-11-19T00:49:47;8.63;79.46
76104;HTU21D;64831;44.870;37.336;2023-11-19T00:52:15;8.60;80.12
76104;HTU21D;64831;44.870;37.336;2023-11-19T00:54:41;8.56;80.34
76104;HTU21D;64831;44.870;37.336;2023-11-19T00:57:08;8.57;80.46
76104;HTU21D;64831;44.870;37.336;2023-11-19T00:59:33;8.55;80.46
76104;HTU21D;64831;44.870;37.336;2023-11-19T01:01:59;8.53;80.43
76104;HTU21D;64831;44.870;37.336;2023-11-19T01:04:29;8.53;80.16
76104;HTU21D;64831;44.870;37.336;2023-11-19T01:06:55;8.50;80.39
76104;HTU21D;64831;44.870;37.336;2023-11-19T01:09:21;8.47;80.54
76104;HTU21D;64831;44.870;37.336;2023-11-19T01:11:47;8.44;80.60
76104;HTU21D;64831;44.870;37.336;2023-11-19T01:14:13;8.42;80.47
76104;HTU21D;64831;44.870;37.336;2023-11-19T01:16:39;8.39;81.18
76104;HTU21D;64831;44.870;37.336;2023-11-19T01:19:05;8.38;81.01
76104;HTU21D;64831;44.870;37.336;2023-11-19T01:21:31;8.35;81.08
76104;HTU21D;64831;44.870;37.336;2023-11-19T01:23:58;8.35;81.02
76104;HTU21D;64831;44.870;37.336;2023-11-19T01:26:25;8.33;81.31
76104;HTU21D;64831;44.870;37.336;2023-11-19T01:28:51;8.32;81.39
76104;HTU21D;64831;44.870;37.336;2023-11-19T01:31:18;8.33;81.10
76104;HTU21D;64831;44.870;37.336;2023-11-19T01:33:44;8.31;81.31
76104;HTU21D;64831;44.870;37.336;2023-11-19T01:36:13;8.31;81.28
76104;HTU21D;64831;44.870;37.336;2023-11-19T01:38:39;8.31;81.27
76104;HTU21D;64831;44.870;37.336;2023-11-19T01:41:05;8.30;81.62
76104;HTU21D;64831;44.870;37.336;2023-11-19T01:43:35;8.29;81.45
76104;HTU21D;64831;44.870;37.336;2023-11-19T01:46:02;8.29;81.84
76104;HTU21D;64831;44.870;37.336;2023-11-19T01:48:35;8.27;81.69
76104;HTU21D;64831;44.870;37.336;2023-11-19T01:51:04;8.24;82.04
76104;HTU21D;64831;44.870;37.336;2023-11-19T01:53:31;8.26;82.05
76104;HTU21D;64831;44.870;37.336;2023-11-19T01:55:57;8.23;82.15
76104;HTU21D;64831;44.870;37.336;2023-11-19T01:58:24;8.22;82.40
76104;HTU21D;64831;44.870;37.336;2023-11-19T02:00:50;8.22;82.51
76104;HTU21D;64831;44.870;37.336;2023-11-19T02:03:17;8.23;82.43
76104;HTU21D;64831;44.870;37.336;2023-11-19T02:05:43;8.26;82.19
76104;HTU21D;64831;44.870;37.336;2023-11-19T02:08:09;8.26;82.32
76104;HTU21D;64831;44.870;37.336;2023-11-19T02:10:35;8.24;82.45
76104;HTU21D;64831;44.870;37.336;2023-11-19T02:13:01;8.27;82.33
76104;HTU21D;64831;44.870;37.336;2023-11-19T02:15:28;8.31;82.23
76104;HTU21D;64831;44.870;37.336;2023-11-19T02:17:54;8.31;82.13
76104;HTU21D;64831;44.870;37.336;2023-11-19T02:20:20;8.35;81.89
76104;HTU21D;64831;44.870;37.336;2023-11-19T02:22:49;8.36;81.91
76104;HTU21D;64831;44.870;37.336;2023-11-19T02:25:30;8.39;81.75
76104;HTU21D;64831;44.870;37.336;2023-11-19T02:27:58;8.41;81.71
76104;HTU21D;64831;44.870;37.336;2023-11-19T02:30:25;8.37;81.78
76104;HTU21D;64831;44.870;37.336;2023-11-19T02:32:55;8.38;81.81
76104;HTU21D;64831;44.870;37.336;2023-11-19T02:35:24;8.41;81.72
76104;HTU21D;64831;44.870;37.336;2023-11-19T02:37:51;8.42;81.86
76104;HTU21D;64831;44.870;37.336;2023-11-19T02:40:17;8.43;81.81
76104;HTU21D;64831;44.870;37.336;2023-11-19T02:42:44;8.45;81.81
76104;HTU21D;64831;44.870;37.336;2023-11-19T02:45:10;8.47;81.76
76104;HTU21D;64831;44.870;37.336;2023-11-19T02:47:42;8.49;81.68
76104;HTU21D;64831;44.870;37.336;2023-11-19T02:50:10;8.50;81.72
76104;HTU21D;64831;44.870;37.336;2023-11-19T02:52:41;8.48;81.74
76104;HTU21D;64831;44.870;37.336;2023-11-19T02:55:08;8.50;81.72
76104;HTU21D;64831;44.870;37.336;2023-11-19T02:57:35;8.50;81.65
76104;HTU21D;64831;44.870;37.336;2023-11-19T03:00:02;8.52;81.65
76104;HTU21D;64831;44.870;37.336;2023-11-19T03:02:40;8.52;81.63
76104;HTU21D;64831;44.870;37.336;2023-11-19T03:05:14;8.53;81.72
76104;HTU21D;64831;44.870;37.336;2023-11-19T03:07:43;8.53;81.88
76104;HTU21D;64831;44.870;37.336;2023-11-19T03:10:13;8.52;81.87
76104;HTU21D;64831;44.870;37.336;2023-11-19T03:12:43;8.53;81.82
76104;HTU21D;64831;44.870;37.336;2023-11-19T03:15:09;8.55;81.97
76104;HTU21D;64831;44.870;37.336;2023-11-19T03:17:39;8.53;82.17
76104;HTU21D;64831;44.870;37.336;2023-11-19T03:20:06;8.52;82.36
76104;HTU21D;64831;44.870;37.336;2023-11-19T03:22:32;8.51;82.44
76104;HTU21D;64831;44.870;37.336;2023-11-19T03:25:01;8.50;82.49
76104;HTU21D;64831;44.870;37.336;2023-11-19T03:27:27;8.52;82.52
76104;HTU21D;64831;44.870;37.336;2023-11-19T03:29:53;8.52;82.40
76104;HTU21D;64831;44.870;37.336;2023-11-19T03:32:19;8.56;82.33
76104;HTU21D;64831;44.870;37.336;2023-11-19T03:34:45;8.56;82.26
76104;HTU21D;64831;44.870;37.336;2023-11-19T03:37:11;8.58;82.26
76104;HTU21D;64831;44.870;37.336;2023-11-19T03:39:38;8.59;82.07
76104;HTU21D;64831;44.870;37.336;2023-11-19T03:42:04;8.61;81.94
76104;HTU21D;64831;44.870;37.336;2023-11-19T03:44:30;8.60;81.88
76104;HTU21D;64831;44.870;37.336;2023-11-19T03:46:56;8.61;81.81
76104;HTU21D;64831;44.870;37.336;2023-11-19T03:49:22;8.66;81.60
76104;HTU21D;64831;44.870;37.336;2023-11-19T03:51:49;8.66;81.57
76104;HTU21D;64831;44.870;37.336;2023-11-19T03:54:15;8.66;81.58
76104;HTU21D;64831;44.870;37.336;2023-11-19T03:56:41;8.65;81.68
76104;HTU21D;64831;44.870;37.336;2023-11-19T03:59:07;8.63;81.86
76104;HTU21D;64831;44.870;37.336;2023-11-19T04:01:35;8.65;81.75
76104;HTU21D;64831;44.870;37.336;2023-11-19T04:04:03;8.64;81.84
76104;HTU21D;64831;44.870;37.336;2023-11-19T04:06:29;8.65;81.72
76104;HTU21D;64831;44.870;37.336;2023-11-19T04:08:54;8.67;81.67
76104;HTU21D;64831;44.870;37.336;2023-11-19T04:11:21;8.65;81.70
76104;HTU21D;64831;44.870;37.336;2023-11-19T04:13:46;8.64;81.72
76104;HTU21D;64831;44.870;37.336;2023-11-19T04:16:12;8.63;81.80
76104;HTU21D;64831;44.870;37.336;2023-11-19T04:18:40;8.62;81.79
76104;HTU21D;64831;44.870;37.336;2023-11-19T04:21:07;8.60;81.81
76104;HTU21D;64831;44.870;37.336;2023-11-19T04:23:33;8.61;81.77
76104;HTU21D;64831;44.870;37.336;2023-11-19T04:26:02;8.62;81.66
76104;HTU21D;64831;44.870;37.336;2023-11-19T04:28:30;8.61;81.75
76104;HTU21D;64831;44.870;37.336;2023-11-19T04:30:56;8.62;81.62
76104;HTU21D;64831;44.870;37.336;2023-11-19T04:33:22;8.62;81.55
76104;HTU21D;64831;44.870;37.336;2023-11-19T04:35:48;8.62;81.63
76104;HTU21D;64831;44.870;37.336;2023-11-19T04:38:13;8.63;81.66
76104;HTU21D;64831;44.870;37.336;2023-11-19T04:40:40;8.64;81.72
76104;HTU21D;64831;44.870;37.336;2023-11-19T04:43:05;8.65;81.55
76104;HTU21D;64831;44.870;37.336;2023-11-19T04:45:32;8.67;81.49
76104;HTU21D;64831;44.870;37.336;2023-11-19T04:47:58;8.66;81.45
76104;HTU21D;64831;44.870;37.336;2023-11-19T04:50:24;8.67;81.38
76104;HTU21D;64831;44.870;37.336;2023-11-19T04:52:52;8.67;81.44
76104;HTU21D;64831;44.870;37.336;2023-11-19T04:55:19;8.66;81.43
76104;HTU21D;64831;44.870;37.336;2023-11-19T04:57:45;8.68;81.46
76104;HTU21D;64831;44.870;37.336;2023-11-19T05:00:11;8.68;81.42
76104;HTU21D;64831;44.870;37.336;2023-11-19T05:02:37;8.72;81.33
76104;HTU21D;64831;44.870;37.336;2023-11-19T05:05:03;8.74;81.25
76104;HTU21D;64831;44.870;37.336;2023-11-19T05:07:30;8.73;81.45
76104;HTU21D;64831;44.870;37.336;2023-11-19T05:09:56;8.70;81.63
76104;HTU21D;64831;44.870;37.336;2023-11-19T05:12:22;8.73;81.61
76104;HTU21D;64831;44.870;37.336;2023-11-19T05:14:48;8.75;81.55
76104;HTU21D;64831;44.870;37.336;2023-11-19T05:17:17;8.75;81.57
76104;HTU21D;64831;44.870;37.336;2023-11-19T05:19:44;8.79;81.53
76104;HTU21D;64831;44.870;37.336;2023-11-19T05:22:10;8.78;81.66
76104;HTU21D;64831;44.870;37.336;2023-11-19T05:24:36;8.79;81.69
76104;HTU21D;64831;44.870;37.336;2023-11-19T05:27:02;8.78;81.80
76104;HTU21D;64831;44.870;37.336;2023-11-19T05:29:28;8.81;81.67
76104;HTU21D;64831;44.870;37.336;2023-11-19T05:31:54;8.87;81.54
76104;HTU21D;64831;44.870;37.336;2023-11-19T05:34:21;8.91;81.39
76104;HTU21D;64831;44.870;37.336;2023-11-19T05:36:47;8.90;81.39
76104;HTU21D;64831;44.870;37.336;2023-11-19T05:39:13;8.95;81.26
76104;HTU21D;64831;44.870;37.336;2023-11-19T05:41:39;8.94;81.40
76104;HTU21D;64831;44.870;37.336;2023-11-19T05:44:05;8.94;81.49
76104;HTU21D;64831;44.870;37.336;2023-11-19T05:46:32;8.98;81.43
76104;HTU21D;64831;44.870;37.336;2023-11-19T05:48:58;8.98;81.55
76104;HTU21D;64831;44.870;37.336;2023-11-19T05:51:23;8.96;81.80
76104;HTU21D;64831;44.870;37.336;2023-11-19T05:53:50;8.97;81.97
76104;HTU21D;64831;44.870;37.336;2023-11-19T05:56:16;8.95;82.19
76104;HTU21D;64831;44.870;37.336;2023-11-19T05:58:47;8.94;82.28
76104;HTU21D;64831;44.870;37.336;2023-11-19T06:01:14;8.96;82.34
76104;HTU21D;64831;44.870;37.336;2023-11-19T06:03:40;8.98;82.24
76104;HTU21D;64831;44.870;37.336;2023-11-19T06:06:08;8.98;82.26
76104;HTU21D;64831;44.870;37.336;2023-11-19T06:08:35;9.02;82.23
76104;HTU21D;64831;44.870;37.336;2023-11-19T06:11:01;9.02;82.28
76104;HTU21D;64831;44.870;37.336;2023-11-19T06:13:27;9.03;82.20
76104;HTU21D;64831;44.870;37.336;2023-11-19T06:15:53;9.03;82.15
76104;HTU21D;64831;44.870;37.336;2023-11-19T06:18:19;9.06;82.04
76104;HTU21D;64831;44.870;37.336;2023-11-19T06:20:45;9.05;82.04
76104;HTU21D;64831;44.870;37.336;2023-11-19T06:23:11;9.07;82.07
76104;HTU21D;64831;44.870;37.336;2023-11-19T06:25:38;9.07;82.07
76104;HTU21D;64831;44.870;37.336;2023-11-19T06:28:04;9.06;82.20
76104;HTU21D;64831;44.870;37.336;2023-11-19T06:30:30;9.04;82.39
76104;HTU21D;64831;44.870;37.336;2023-11-19T06:32:58;9.04;82.42
76104;HTU21D;64831;44.870;37.336;2023-11-19T06:35:24;9.00;82.71
76104;HTU21D;64831;44.870;37.336;2023-11-19T06:37:50;8.98;82.84
76104;HTU21D;64831;44.870;37.336;2023-11-19T06:40:16;8.93;83.28
76104;HTU21D;64831;44.870;37.336;2023-11-19T06:42:42;8.95;83.18
76104;HTU21D;64831;44.870;37.336;2023-11-19T06:45:08;8.95;83.16
76104;HTU21D;64831;44.870;37.336;2023-11-19T06:47:35;8.96;83.07
76104;HTU21D;64831;44.870;37.336;2023-11-19T06:50:01;8.96;83.26
76104;HTU21D;64831;44.870;37.336;2023-11-19T06:52:31;9.00;83.28
76104;HTU21D;64831;44.870;37.336;2023-11-19T06:54:57;9.02;83.31
76104;HTU21D;64831;44.870;37.336;2023-11-19T06:57:23;9.02;83.48
76104;HTU21D;64831;44.870;37.336;2023-11-19T06:59:49;9.05;83.28
76104;HTU21D;64831;44.870;37.336;2023-11-19T07:02:15;9.08;83.23
76104;HTU21D;64831;44.870;37.336;2023-11-19T07:04:41;9.11;83.13
76104;HTU21D;64831;44.870;37.336;2023-11-19T07:07:07;9.15;83.10
76104;HTU21D;64831;44.870;37.336;2023-11-19T07:09:33;9.15;83.21
76104;HTU21D;64831;44.870;37.336;2023-11-19T07:11:59;9.16;83.28
76104;HTU21D;64831;44.870;37.336;2023-11-19T07:14:27;9.21;83.24
76104;HTU21D;64831;44.870;37.336;2023-11-19T07:16:54;9.24;83.24
76104;HTU21D;64831;44.870;37.336;2023-11-19T07:19:21;9.31;83.09
76104;HTU21D;64831;44.870;37.336;2023-11-19T07:21:47;9.32;82.86
76104;HTU21D;64831;44.870;37.336;2023-11-19T07:24:13;9.33;82.91
76104;HTU21D;64831;44.870;37.336;2023-11-19T07:26:46;9.31;82.92
76104;HTU21D;64831;44.870;37.336;2023-11-19T07:29:15;9.32;82.85
76104;HTU21D;64831;44.870;37.336;2023-11-19T07:31:44;9.32;82.90
76104;HTU21D;64831;44.870;37.336;2023-11-19T07:34:10;9.32;82.73
76104;HTU21D;64831;44.870;37.336;2023-11-19T07:36:37;9.31;82.59
76104;HTU21D;64831;44.870;37.336;2023-11-19T07:39:04;9.31;82.53
76104;HTU21D;64831;44.870;37.336;2023-11-19T07:41:31;9.30;82.55
76104;HTU21D;64831;44.870;37.336;2023-11-19T07:43:57;9.32;82.39
76104;HTU21D;64831;44.870;37.336;2023-11-19T07:46:23;9.31;82.64
76104;HTU21D;64831;44.870;37.336;2023-11-19T07:48:51;9.30;82.81
76104;HTU21D;64831;44.870;37.336;2023-11-19T07:51:18;9.30;82.97
76104;HTU21D;64831;44.870;37.336;2023-11-19T07:53:44;9.33;82.81
76104;HTU21D;64831;44.870;37.336;2023-11-19T07:56:10;9.36;83.31
76104;HTU21D;64831;44.870;37.336;2023-11-19T07:58:36;9.42;83.26
76104;HTU21D;64831;44.870;37.336;2023-11-19T08:01:02;9.48;83.04
76104;HTU21D;64831;44.870;37.336;2023-11-19T08:03:28;9.51;82.94
76104;HTU21D;64831;44.870;37.336;2023-11-19T08:05:55;9.53;82.91
76104;HTU21D;64831;44.870;37.336;2023-11-19T08:08:22;9.59;82.71
76104;HTU21D;64831;44.870;37.336;2023-11-19T08:10:48;9.56;82.71
76104;HTU21D;64831;44.870;37.336;2023-11-19T08:13:14;9.56;82.66
76104;HTU21D;64831;44.870;37.336;2023-11-19T08:15:40;9.56;82.56
76104;HTU21D;64831;44.870;37.336;2023-11-19T08:18:06;9.54;82.74
76104;HTU21D;64831;44.870;37.336;2023-11-19T08:20:33;9.57;82.50
76104;HTU21D;64831;44.870;37.336;2023-11-19T08:23:02;9.56;82.46
76104;HTU21D;64831;44.870;37.336;2023-11-19T08:25:29;9.54;82.51
76104;HTU21D;64831;44.870;37.336;2023-11-19T08:27:55;9.52;82.75
76104;HTU21D;64831;44.870;37.336;2023-11-19T08:30:21;9.53;82.86
76104;HTU21D;64831;44.870;37.336;2023-11-19T08:32:47;9.54;82.68
76104;HTU21D;64831;44.870;37.336;2023-11-19T08:35:13;9.57;82.62
76104;HTU21D;64831;44.870;37.336;2023-11-19T08:37:39;9.61;82.48
76104;HTU21D;64831;44.870;37.336;2023-11-19T08:40:05;9.62;82.19
76104;HTU21D;64831;44.870;37.336;2023-11-19T08:42:32;9.55;82.01
76104;HTU21D;64831;44.870;37.336;2023-11-19T08:44:58;9.50;81.88
76104;HTU21D;64831;44.870;37.336;2023-11-19T08:47:24;9.46;82.07
76104;HTU21D;64831;44.870;37.336;2023-11-19T08:49:52;9.47;82.06
76104;HTU21D;64831;44.870;37.336;2023-11-19T08:52:18;9.45;82.16
76104;HTU21D;64831;44.870;37.336;2023-11-19T08:54:44;9.40;82.30
76104;HTU21D;64831;44.870;37.336;2023-11-19T08:57:10;9.38;82.41
76104;HTU21D;64831;44.870;37.336;2023-11-19T08:59:36;9.37;82.33
76104;HTU21D;64831;44.870;37.336;2023-11-19T09:02:05;9.36;82.07
76104;HTU21D;64831;44.870;37.336;2023-11-19T09:04:32;9.33;82.04
76104;HTU21D;64831;44.870;37.336;2023-11-19T09:06:59;9.29;82.02
76104;HTU21D;64831;44.870;37.336;2023-11-19T09:09:25;9.22;82.10
76104;HTU21D;64831;44.870;37.336;2023-11-19T09:11:51;9.22;82.04
76104;HTU21D;64831;44.870;37.336;2023-11-19T09:14:17;9.19;82.05
76104;HTU21D;64831;44.870;37.336;2023-11-19T09:16:44;9.18;82.14
76104;HTU21D;64831;44.870;37.336;2023-11-19T09:19:10;9.14;82.26
76104;HTU21D;64831;44.870;37.336;2023-11-19T09:21:36;9.14;82.42
76104;HTU21D;64831;44.870;37.336;2023-11-19T09:24:04;9.14;82.49
76104;HTU21D;64831;44.870;37.336;2023-11-19T09:26:31;9.16;82.69
76104;HTU21D;64831;44.870;37.336;2023-11-19T09:28:56;9.15;82.90
76104;HTU21D;64831;44.870;37.336;2023-11-19T09:31:22;9.17;82.71
76104;HTU21D;64831;44.870;37.336;2023-11-19T09:33:48;9.16;82.70
76104;HTU21D;64831;44.870;37.336;2023-11-19T09:36:14;9.17;82.64
76104;HTU21D;64831;44.870;37.336;2023-11-19T09:38:43;9.16;82.50
76104;HTU21D;64831;44.870;37.336;2023-11-19T09:41:10;9.14;82.54
76104;HTU21D;64831;44.870;37.336;2023-11-19T09:43:39;9.08;82.88
76104;HTU21D;64831;44.870;37.336;2023-11-19T09:46:06;9.06;82.71
76104;HTU21D;64831;44.870;37.336;2023-11-19T09:48:36;9.08;82.61
76104;HTU21D;64831;44.870;37.336;2023-11-19T09:51:10;9.05;82.87
76104;HTU21D;64831;44.870;37.336;2023-11-19T09:53:37;9.07;82.98
76104;HTU21D;64831;44.870;37.336;2023-11-19T09:56:04;9.07;83.22
76104;HTU21D;64831;44.870;37.336;2023-11-19T09:58:32;9.11;83.25
76104;HTU21D;64831;44.870;37.336;2023-11-19T10:00:59;9.12;83.48
76104;HTU21D;64831;44.870;37.336;2023-11-19T10:03:26;9.15;83.58
76104;HTU21D;64831;44.870;37.336;2023-11-19T10:05:57;9.21;83.48
76104;HTU21D;64831;44.870;37.336;2023-11-19T10:08:23;9.29;83.60
76104;HTU21D;64831;44.870;37.336;2023-11-19T10:10:49;9.40;83.52
76104;HTU21D;64831;44.870;37.336;2023-11-19T10:13:15;9.54;83.27
76104;HTU21D;64831;44.870;37.336;2023-11-19T10:15:41;9.64;82.99
76104;HTU21D;64831;44.870;37.336;2023-11-19T10:18:09;9.75;82.82
76104;HTU21D;64831;44.870;37.336;2023-11-19T10:20:40;9.89;82.63
76104;HTU21D;64831;44.870;37.336;2023-11-19T10:23:07;10.00;82.24
76104;HTU21D;64831;44.870;37.336;2023-11-19T10:25:33;10.15;82.00
76104;HTU21D;64831;44.870;37.336;2023-11-19T10:28:00;10.30;81.72
76104;HTU21D;64831;44.870;37.336;2023-11-19T10:30:27;10.38;81.12
76104;HTU21D;64831;44.870;37.336;2023-11-19T10:33:15;10.41;80.48
76104;HTU21D;64831;44.870;37.336;2023-11-19T10:35:53;10.42;80.24
76104;HTU21D;64831;44.870;37.336;2023-11-19T10:38:20;10.43;80.19
76104;HTU21D;64831;44.870;37.336;2023-11-19T10:40:48;10.44;80.07
76104;HTU21D;64831;44.870;37.336;2023-11-19T10:43:14;10.36;79.86
76104;HTU21D;64831;44.870;37.336;2023-11-19T10:45:40;10.29;79.96
76104;HTU21D;64831;44.870;37.336;2023-11-19T10:48:07;10.26;80.12
76104;HTU21D;64831;44.870;37.336;2023-11-19T10:50:36;10.22;80.24
76104;HTU21D;64831;44.870;37.336;2023-11-19T10:53:03;10.21;80.49
76104;HTU21D;64831;44.870;37.336;2023-11-19T10:55:34;10.24;80.44
76104;HTU21D;64831;44.870;37.336;2023-11-19T10:58:02;10.24;80.59
76104;HTU21D;64831;44.870;37.336;2023-11-19T11:00:47;10.24;80.78
76104;HTU21D;64831;44.870;37.336;2023-11-19T11:03:18;10.24;81.07
76104;HTU21D;64831;44.870;37.336;2023-11-19T11:05:48;10.22;81.31
76104;HTU21D;64831;44.870;37.336;2023-11-19T11:08:15;10.20;81.40
76104;HTU21D;64831;44.870;37.336;2023-11-19T11:10:55;10.24;81.24
76104;HTU21D;64831;44.870;37.336;2023-11-19T11:13:25;10.23;81.49
76104;HTU21D;64831;44.870;37.336;2023-11-19T11:15:55;10.24;81.69
76104;HTU21D;64831;44.870;37.336;2023-11-19T11:18:23;10.25;82.11
76104;HTU21D;64831;44.870;37.336;2023-11-19T11:20:55;10.24;81.98
76104;HTU21D;64831;44.870;37.336;2023-11-19T11:23:46;10.23;81.67
76104;HTU21D;64831;44.870;37.336;2023-11-19T11:26:47;10.20;81.75
76104;HTU21D;64831;44.870;37.336;2023-11-19T11:29:46;10.16;81.94
76104;HTU21D;64831;44.870;37.336;2023-11-19T11:35:53;10.10;82.30
76104;HTU21D;64831;44.870;37.336;2023-11-19T11:38:25;10.09;82.22
76104;HTU21D;64831;44.870;37.336;2023-11-19T11:41:19;10.06;82.76
76104;HTU21D;64831;44.870;37.336;2023-11-19T11:43:46;10.04;83.18
76104;HTU21D;64831;44.870;37.336;2023-11-19T11:49:01;10.01;83.71
76104;HTU21D;64831;44.870;37.336;2023-11-19T11:54:30;10.01;83.83
76104;HTU21D;64831;44.870;37.336;2023-11-19T11:57:12;10.01;84.11
76104;HTU21D;64831;44.870;37.336;2023-11-19T12:02:09;10.00;84.07
76104;HTU21D;64831;44.870;37.336;2023-11-19T12:04:35;9.98;83.94
76104;HTU21D;64831;44.870;37.336;2023-11-19T12:07:21;9.97;83.72
76104;HTU21D;64831;44.870;37.336;2023-11-19T12:09:51;9.94;83.87
76104;HTU21D;64831;44.870;37.336;2023-11-19T12:12:25;9.93;83.60
76104;HTU21D;64831;44.870;37.336;2023-11-19T12:15:12;9.95;83.34
76104;HTU21D;64831;44.870;37.336;2023-11-19T12:17:50;9.95;83.14
76104;HTU21D;64831;44.870;37.336;2023-11-19T12:20:17;9.97;83.23
76104;HTU21D;64831;44.870;37.336;2023-11-19T12:22:47;9.99;83.55
76104;HTU21D;64831;44.870;37.336;2023-11-19T12:25:15;10.00;83.44
76104;HTU21D;64831;44.870;37.336;2023-11-19T12:27:49;9.99;83.42
76104;HTU21D;64831;44.870;37.336;2023-11-19T12:30:22;9.97;83.50
76104;HTU21D;64831;44.870;37.336;2023-11-19T12:32:49;9.94;83.36
76104;HTU21D;64831;44.870;37.336;2023-11-19T12:35:16;9.91;83.45
76104;HTU21D;64831;44.870;37.336;2023-11-19T12:37:46;9.91;83.44
76104;HTU21D;64831;44.870;37.336;2023-11-19T12:40:13;9.94;83.31
76104;HTU21D;64831;44.870;37.336;2023-11-19T12:42:40;9.93;83.09
76104;HTU21D;64831;44.870;37.336;2023-11-19T12:45:07;9.94;83.05
76104;HTU21D;64831;44.870;37.336;2023-11-19T12:47:36;9.95;82.89
76104;HTU21D;64831;44.870;37.336;2023-11-19T12:50:03;9.98;82.99
76104;HTU21D;64831;44.870;37.336;2023-11-19T12:52:30;10.00;83.13
76104;HTU21D;64831;44.870;37.336;2023-11-19T12:54:56;10.04;83.00
76104;HTU21D;64831;44.870;37.336;2023-11-19T12:57:42;10.08;82.85
76104;HTU21D;64831;44.870;37.336;2023-11-19T13:00:19;10.09;82.93
76104;HTU21D;64831;44.870;37.336;2023-11-19T13:02:49;10.12;82.90
76104;HTU21D;64831;44.870;37.336;2023-11-19T13:05:44;10.13;82.87
76104;HTU21D;64831;44.870;37.336;2023-11-19T13:08:10;10.14;83.34
76104;HTU21D;64831;44.870;37.336;2023-11-19T13:10:51;10.14;83.17
76104;HTU21D;64831;44.870;37.336;2023-11-19T13:13:17;10.14;83.16
76104;HTU21D;64831;44.870;37.336;2023-11-19T13:15:44;10.14;83.28
76104;HTU21D;64831;44.870;37.336;2023-11-19T13:18:13;10.15;83.21
76104;HTU21D;64831;44.870;37.336;2023-11-19T13:20:42;10.16;83.12
76104;HTU21D;64831;44.870;37.336;2023-11-19T13:23:08;10.20;83.03
76104;HTU21D;64831;44.870;37.336;2023-11-19T13:25:36;10.20;83.29
76104;HTU21D;64831;44.870;37.336;2023-11-19T13:28:02;10.22;83.17
76104;HTU21D;64831;44.870;37.336;2023-11-19T13:30:28;10.24;82.89
76104;HTU21D;64831;44.870;37.336;2023-11-19T13:32:55;10.26;82.92
76104;HTU21D;64831;44.870;37.336;2023-11-19T13:35:22;10.28;82.71
76104;HTU21D;64831;44.870;37.336;2023-11-19T13:37:50;10.27;82.65
76104;HTU21D;64831;44.870;37.336;2023-11-19T13:40:17;10.29;82.69
76104;HTU21D;64831;44.870;37.336;2023-11-19T13:42:45;10.29;82.70
76104;HTU21D;64831;44.870;37.336;2023-11-19T13:45:12;10.30;82.62
76104;HTU21D;64831;44.870;37.336;2023-11-19T13:47:43;10.33;82.56
76104;HTU21D;64831;44.870;37.336;2023-11-19T13:50:11;10.35;82.58
76104;HTU21D;64831;44.870;37.336;2023-11-19T13:52:38;10.36;82.63
76104;HTU21D;64831;44.870;37.336;2023-11-19T13:55:09;10.36;82.68
76104;HTU21D;64831;44.870;37.336;2023-11-19T13:57:35;10.37;82.61
76104;HTU21D;64831;44.870;37.336;2023-11-19T14:00:06;10.38;82.65
76104;HTU21D;64831;44.870;37.336;2023-11-19T14:02:36;10.38;82.75
76104;HTU21D;64831;44.870;37.336;2023-11-19T14:05:02;10.42;82.65
76104;HTU21D;64831;44.870;37.336;2023-11-19T14:07:28;10.43;82.62
76104;HTU21D;64831;44.870;37.336;2023-11-19T14:09:54;10.46;82.58
76104;HTU21D;64831;44.870;37.336;2023-11-19T14:12:20;10.51;82.67
76104;HTU21D;64831;44.870;37.336;2023-11-19T14:14:47;10.54;82.61
76104;HTU21D;64831;44.870;37.336;2023-11-19T14:17:13;10.56;82.55
76104;HTU21D;64831;44.870;37.336;2023-11-19T14:19:42;10.58;82.50
76104;HTU21D;64831;44.870;37.336;2023-11-19T14:22:08;10.62;82.52
76104;HTU21D;64831;44.870;37.336;2023-11-19T14:24:34;10.63;82.45
76104;HTU21D;64831;44.870;37.336;2023-11-19T14:27:01;10.63;82.42
76104;HTU21D;64831;44.870;37.336;2023-11-19T14:29:27;10.66;82.39
76104;HTU21D;64831;44.870;37.336;2023-11-19T14:31:57;10.66;82.39
76104;HTU21D;64831;44.870;37.336;2023-11-19T14:34:24;10.66;82.42
76104;HTU21D;64831;44.870;37.336;2023-11-19T14:36:52;10.66;82.43
76104;HTU21D;64831;44.870;37.336;2023-11-19T14:39:19;10.65;82.48
76104;HTU21D;64831;44.870;37.336;2023-11-19T14:41:45;10.65;82.93
76104;HTU21D;64831;44.870;37.336;2023-11-19T14:44:11;10.62;82.71
76104;HTU21D;64831;44.870;37.336;2023-11-19T14:46:38;10.57;82.61
76104;HTU21D;64831;44.870;37.336;2023-11-19T14:49:04;10.56;82.69
76104;HTU21D;64831;44.870;37.336;2023-11-19T14:51:31;10.54;82.79
76104;HTU21D;64831;44.870;37.336;2023-11-19T14:53:57;10.53;82.70
76104;HTU21D;64831;44.870;37.336;2023-11-19T14:56:23;10.53;82.68
76104;HTU21D;64831;44.870;37.336;2023-11-19T14:58:49;10.52;82.67
76104;HTU21D;64831;44.870;37.336;2023-11-19T15:01:17;10.53;82.68
76104;HTU21D;64831;44.870;37.336;2023-11-19T15:03:44;10.52;82.71
76104;HTU21D;64831;44.870;37.336;2023-11-19T15:06:10;10.52;82.73
76104;HTU21D;64831;44.870;37.336;2023-11-19T15:08:37;10.52;82.81
76104;HTU21D;64831;44.870;37.336;2023-11-19T15:11:03;10.52;82.90
76104;HTU21D;64831;44.870;37.336;2023-11-19T15:13:32;10.52;83.08
76104;HTU21D;64831;44.870;37.336;2023-11-19T15:15:59;10.51;83.25
76104;HTU21D;64831;44.870;37.336;2023-11-19T15:18:25;10.50;83.08
76104;HTU21D;64831;44.870;37.336;2023-11-19T15:20:52;10.51;83.00
76104;HTU21D;64831;44.870;37.336;2023-11-19T15:23:17;10.53;82.97
76104;HTU21D;64831;44.870;37.336;2023-11-19T15:25:45;10.54;83.04
76104;HTU21D;64831;44.870;37.336;2023-11-19T15:28:11;10.56;83.26